createdAt,value
2022-11-01T00:01:09.706Z,8.28
2022-11-01T00:03:42.053Z,8.29
2022-11-01T00:06:18.744Z,8.29
2022-11-01T00:08:50.813Z,8.27
2022-11-01T00:11:23.070Z,8.25
2022-11-01T00:13:54.975Z,8.24
2022-11-01T00:16:27.127Z,8.24
2022-11-01T00:18:59.288Z,8.24
2022-11-01T00:21:31.197Z,8.23
2022-11-01T00:24:03.124Z,8.22
2022-11-01T00:26:35.187Z,8.20
2022-11-01T00:29:08.540Z,8.20
2022-11-01T00:31:42.734Z,8.19
2022-11-01T00:34:14.669Z,8.19
2022-11-01T00:36:46.682Z,8.18
2022-11-01T00:39:18.686Z,8.17
2022-11-01T00:41:51.696Z,8.18
2022-11-01T00:44:23.697Z,8.17
2022-11-01T00:46:55.646Z,8.15
2022-11-01T00:49:28.026Z,8.14
2022-11-01T00:51:59.968Z,8.13
2022-11-01T00:54:31.876Z,8.14
2022-11-01T00:57:04.001Z,8.16
2022-11-01T00:59:40.648Z,8.16
2022-11-01T01:02:13.227Z,8.16
2022-11-01T01:04:48.527Z,8.18
2022-11-01T01:07:20.566Z,8.19
2022-11-01T01:09:52.479Z,8.22
2022-11-01T01:12:24.808Z,8.23
2022-11-01T01:14:56.683Z,8.24
2022-11-01T01:17:31.310Z,8.24
2022-11-01T01:20:07.573Z,8.26
2022-11-01T01:22:39.505Z,8.28
2022-11-01T01:25:12.303Z,8.28
2022-11-01T01:27:44.337Z,8.28
2022-11-01T01:30:16.730Z,8.30
2022-11-01T01:32:48.854Z,8.31
2022-11-01T01:35:21.202Z,8.33
2022-11-01T01:37:53.332Z,8.33
2022-11-01T01:40:25.217Z,8.33
2022-11-01T01:42:57.086Z,8.34
2022-11-01T01:45:40.668Z,8.36
2022-11-01T01:48:22.574Z,8.37
2022-11-01T01:50:59.762Z,8.38
2022-11-01T01:53:35.265Z,8.41
2022-11-01T01:56:12.996Z,8.44
2022-11-01T01:58:47.330Z,8.47
2022-11-01T02:01:19.401Z,8.46
2022-11-01T02:03:53.009Z,8.43
2022-11-01T02:06:27.116Z,8.40
2022-11-01T02:09:01.677Z,8.37
2022-11-01T02:11:33.714Z,8.35
2022-11-01T02:14:06.183Z,8.34
2022-11-01T02:16:53.308Z,8.33
2022-11-01T02:19:55.979Z,8.37
2022-11-01T02:22:45.429Z,8.39
2022-11-01T02:25:51.508Z,8.41
2022-11-01T02:28:40.756Z,8.46
2022-11-01T02:31:33.134Z,8.46
2022-11-01T02:34:06.283Z,8.42
2022-11-01T02:36:45.530Z,8.36
2022-11-01T02:39:25.232Z,8.32
2022-11-01T02:42:04.544Z,8.33
2022-11-01T02:44:41.209Z,8.35
2022-11-01T02:47:14.218Z,8.39
2022-11-01T02:49:49.419Z,8.41
2022-11-01T02:52:24.856Z,8.41
2022-11-01T02:55:00.263Z,8.41
2022-11-01T02:57:37.311Z,8.39
2022-11-01T03:00:23.796Z,8.37
2022-11-01T03:03:05.906Z,8.35
2022-11-01T03:05:47.094Z,8.33
2022-11-01T03:08:31.915Z,8.37
2022-11-01T03:11:12.781Z,8.41
2022-11-01T03:13:59.213Z,8.46
2022-11-01T03:16:36.942Z,8.53
2022-11-01T03:19:21.806Z,8.63
2022-11-01T03:22:00.583Z,8.71
2022-11-01T03:24:36.483Z,8.77
2022-11-01T03:27:16.851Z,8.80
2022-11-01T03:29:56.985Z,8.87
2022-11-01T03:32:33.765Z,8.91
2022-11-01T03:35:09.784Z,8.94
2022-11-01T03:37:45.274Z,8.97
2022-11-01T03:40:20.348Z,9.01
2022-11-01T03:42:55.701Z,9.03
2022-11-01T03:45:29.416Z,9.06
2022-11-01T03:48:03.141Z,9.10
2022-11-01T03:50:37.179Z,9.11
2022-11-01T03:53:09.407Z,9.14
2022-11-01T03:55:41.700Z,9.17
2022-11-01T03:58:13.996Z,9.18
2022-11-01T04:00:47.804Z,9.16
2022-11-01T04:03:19.789Z,9.14
2022-11-01T04:05:54.829Z,9.14
2022-11-01T04:08:27.264Z,9.12
2022-11-01T04:10:59.284Z,9.11
2022-11-01T04:13:31.892Z,9.10
2022-11-01T04:16:23.907Z,9.10
2022-11-01T04:19:17.087Z,9.10
2022-11-01T04:21:49.367Z,9.10
2022-11-01T04:24:21.880Z,9.08
2022-11-01T04:26:54.199Z,9.06
2022-11-01T04:29:26.174Z,9.05
2022-11-01T04:31:58.169Z,9.06
2022-11-01T04:34:45.774Z,9.09
2022-11-01T04:37:18.124Z,9.12
2022-11-01T04:39:52.581Z,9.16
2022-11-01T04:42:24.757Z,9.16
2022-11-01T04:44:56.733Z,9.12
2022-11-01T04:47:28.725Z,9.10
2022-11-01T04:50:00.677Z,9.08
2022-11-01T04:52:32.975Z,9.11
2022-11-01T04:55:05.426Z,9.15
2022-11-01T04:57:41.865Z,9.17
2022-11-01T05:00:16.291Z,9.16
2022-11-01T05:02:48.264Z,9.16
2022-11-01T05:05:20.670Z,9.18
2022-11-01T05:07:52.761Z,9.16
2022-11-01T05:10:24.711Z,9.13
2022-11-01T05:12:56.916Z,9.13
2022-11-01T05:15:29.325Z,9.11
2022-11-01T05:18:01.944Z,9.11
2022-11-01T05:20:34.173Z,9.08
2022-11-01T05:23:07.513Z,9.07
2022-11-01T05:25:39.446Z,9.05
2022-11-01T05:28:14.903Z,9.04
2022-11-01T05:30:46.828Z,9.05
2022-11-01T05:33:19.067Z,9.06
2022-11-01T05:35:50.980Z,9.07
2022-11-01T05:38:22.996Z,9.04
2022-11-01T05:40:54.952Z,9.05
2022-11-01T05:43:29.719Z,9.06
2022-11-01T05:46:04.089Z,9.07
2022-11-01T05:48:36.250Z,9.12
2022-11-01T05:51:08.522Z,9.15
2022-11-01T05:53:40.614Z,9.18
2022-11-01T05:56:12.545Z,9.24
2022-11-01T05:58:46.826Z,9.31
2022-11-01T06:01:18.859Z,9.38
2022-11-01T06:03:53.007Z,9.43
2022-11-01T06:06:24.924Z,9.47
2022-11-01T06:08:57.850Z,9.53
2022-11-01T06:11:30.488Z,9.55
2022-11-01T06:14:02.379Z,9.59
2022-11-01T06:16:35.010Z,9.64
2022-11-01T06:19:07.054Z,9.66
2022-11-01T06:21:38.883Z,9.70
2022-11-01T06:24:12.900Z,9.73
2022-11-01T06:26:46.423Z,9.75
2022-11-01T06:29:18.717Z,9.77
2022-11-01T06:31:50.877Z,9.79
2022-11-01T06:34:22.929Z,9.83
2022-11-01T06:36:54.881Z,9.87
2022-11-01T06:39:28.049Z,9.94
2022-11-01T06:42:01.182Z,9.97
2022-11-01T06:44:33.313Z,10.03
2022-11-01T06:47:05.322Z,10.07
2022-11-01T06:49:37.291Z,10.10
2022-11-01T06:52:09.774Z,10.12
2022-11-01T06:54:41.880Z,10.16
2022-11-01T06:57:14.706Z,10.22
2022-11-01T06:59:46.625Z,10.27
2022-11-01T07:02:25.686Z,10.31
2022-11-01T07:05:00.657Z,10.36
2022-11-01T07:07:33.006Z,10.40
2022-11-01T07:10:05.670Z,10.45
2022-11-01T07:12:37.658Z,10.48
2022-11-01T07:15:11.318Z,10.48
2022-11-01T07:17:44.153Z,10.53
2022-11-01T07:20:16.230Z,10.59
2022-11-01T07:22:49.446Z,10.64
2022-11-01T07:25:21.441Z,10.66
2022-11-01T07:27:53.374Z,10.71
2022-11-01T07:30:25.497Z,10.78
2022-11-01T07:33:00.464Z,10.82
2022-11-01T07:35:33.381Z,10.87
2022-11-01T07:38:09.813Z,10.96
2022-11-01T07:40:49.437Z,11.04
2022-11-01T07:43:21.780Z,11.12
2022-11-01T07:45:53.814Z,11.20
2022-11-01T07:48:25.898Z,11.25
2022-11-01T07:51:05.695Z,11.27
2022-11-01T07:53:38.471Z,11.27
2022-11-01T07:56:10.939Z,11.28
2022-11-01T07:58:43.674Z,11.29
2022-11-01T08:01:16.105Z,11.31
2022-11-01T08:03:49.336Z,11.34
2022-11-01T08:08:54.119Z,11.39
2022-11-01T08:11:26.083Z,11.41
2022-11-01T08:14:02.828Z,11.41
2022-11-01T08:16:38.109Z,11.42
2022-11-01T08:19:11.528Z,11.46
2022-11-01T08:21:44.471Z,11.49
2022-11-01T08:24:16.571Z,11.50
2022-11-01T08:26:54.126Z,11.49
2022-11-01T08:29:26.048Z,11.50
2022-11-01T08:31:58.057Z,11.55
2022-11-01T08:34:30.917Z,11.58
2022-11-01T08:37:06.741Z,11.57
2022-11-01T08:39:38.644Z,11.54
2022-11-01T08:42:12.690Z,11.54
2022-11-01T08:44:44.721Z,11.56
2022-11-01T08:47:16.900Z,11.61
2022-11-01T08:49:48.889Z,11.73
2022-11-01T08:52:20.867Z,11.87
2022-11-01T08:54:52.822Z,11.93
2022-11-01T08:57:24.971Z,11.98
2022-11-01T09:00:00.028Z,12.03
2022-11-01T09:02:32.482Z,12.09
2022-11-01T09:05:06.635Z,12.14
2022-11-01T09:07:39.885Z,12.20
2022-11-01T09:10:13.454Z,12.25
2022-11-01T09:12:46.541Z,12.28
2022-11-01T09:15:18.860Z,12.32
2022-11-01T09:17:50.758Z,12.34
2022-11-01T09:20:24.579Z,12.39
2022-11-01T09:22:56.590Z,12.42
2022-11-01T09:25:30.729Z,12.40
2022-11-01T09:28:02.879Z,12.40
2022-11-01T09:30:35.018Z,12.42
2022-11-01T09:33:08.914Z,12.47
2022-11-01T09:35:40.783Z,12.53
2022-11-01T09:38:12.751Z,12.63
2022-11-01T09:40:47.028Z,12.77
2022-11-01T09:43:24.887Z,12.90
2022-11-01T09:45:59.434Z,12.95
2022-11-01T09:48:34.312Z,12.98
2022-11-01T09:51:11.925Z,13.05
2022-11-01T09:53:44.250Z,13.17
2022-11-01T09:56:22.746Z,13.33
2022-11-01T09:59:02.963Z,13.50
2022-11-01T10:01:49.556Z,13.56
2022-11-01T10:04:46.330Z,13.62
2022-11-01T10:07:25.297Z,13.75
2022-11-01T10:10:12.873Z,13.81
2022-11-01T10:13:01.201Z,13.88
2022-11-01T10:15:51.030Z,14.13
2022-11-01T10:18:30.407Z,14.52
2022-11-01T10:21:06.203Z,15.01
2022-11-01T10:23:48.137Z,16.62
2022-11-01T10:26:27.882Z,18.47
2022-11-01T10:29:08.948Z,19.98
2022-11-01T10:31:51.851Z,21.83
2022-11-01T10:34:29.792Z,23.74
2022-11-01T10:37:15.772Z,25.28
2022-11-01T10:39:58.966Z,26.65
2022-11-01T10:42:33.689Z,27.27
2022-11-01T10:45:09.274Z,27.40
2022-11-01T10:47:43.523Z,27.14
2022-11-01T10:50:22.009Z,26.03
2022-11-01T10:52:57.434Z,25.57
2022-11-01T10:55:35.400Z,25.67
2022-11-01T10:58:14.586Z,26.10
2022-11-01T11:00:47.416Z,26.09
2022-11-01T11:03:24.429Z,25.38
2022-11-01T11:06:01.095Z,24.51
2022-11-01T11:08:34.902Z,24.30
2022-11-01T11:11:14.097Z,23.65
2022-11-01T11:13:50.230Z,22.31
2022-11-01T11:16:31.329Z,21.23
2022-11-01T11:19:19.484Z,20.48
2022-11-01T11:21:54.091Z,20.06
2022-11-01T11:24:31.859Z,19.62
2022-11-01T11:27:11.807Z,19.27
2022-11-01T11:29:49.277Z,19.26
2022-11-01T11:32:25.111Z,19.46
2022-11-01T11:34:59.534Z,19.90
2022-11-01T11:37:35.972Z,20.28
2022-11-01T11:40:21.100Z,21.16
2022-11-01T11:42:54.964Z,21.59
2022-11-01T11:45:29.886Z,21.57
2022-11-01T11:48:23.971Z,21.29
2022-11-01T11:51:04.261Z,20.74
2022-11-01T11:53:36.241Z,20.23
2022-11-01T11:56:14.659Z,20.14
2022-11-01T11:58:50.208Z,20.14
2022-11-01T12:01:25.946Z,19.76
2022-11-01T12:04:00.802Z,19.46
2022-11-01T12:06:38.885Z,19.31
2022-11-01T12:09:43.926Z,19.33
2022-11-01T12:12:23.821Z,19.57
2022-11-01T12:14:56.806Z,19.81
2022-11-01T12:17:46.931Z,20.15
2022-11-01T12:20:20.950Z,20.38
2022-11-01T12:22:59.475Z,20.31
2022-11-01T12:25:32.913Z,20.23
2022-11-01T12:32:54.348Z,19.80
2022-11-01T12:38:54.538Z,19.43
2022-11-01T12:42:37.246Z,19.09
2022-11-01T12:45:53.586Z,18.90
2022-11-01T12:57:15.472Z,18.58
2022-11-01T13:04:59.440Z,18.81
2022-11-01T13:12:17.436Z,18.82
2022-11-01T13:24:15.789Z,18.81
2022-11-01T13:36:13.522Z,19.29
2022-11-01T13:43:18.104Z,19.69
2022-11-01T13:52:01.530Z,20.18
2022-11-01T13:54:40.670Z,20.17
2022-11-01T13:57:17.414Z,20.06
2022-11-01T13:59:57.438Z,19.86
2022-11-01T14:02:53.451Z,19.68
2022-11-01T14:05:38.606Z,19.55
2022-11-01T14:08:32.549Z,19.43
2022-11-01T14:11:04.427Z,19.25
2022-11-01T14:13:40.206Z,19.09
2022-11-01T14:16:29.866Z,18.92
2022-11-01T14:19:22.795Z,18.77
2022-11-01T14:21:58.136Z,18.62
2022-11-01T14:24:35.156Z,18.34
2022-11-01T14:27:23.077Z,18.02
2022-11-01T14:29:58.399Z,17.73
2022-11-01T14:32:32.797Z,17.53
2022-11-01T14:35:26.270Z,17.33
2022-11-01T14:41:55.999Z,16.85
2022-11-01T14:49:19.080Z,16.42
2022-11-01T15:05:17.453Z,15.63
2022-11-01T15:13:08.802Z,15.28
2022-11-01T15:20:52.041Z,15.01
2022-11-01T15:28:29.639Z,14.70
2022-11-01T15:53:57.669Z,14.01
2022-11-01T16:01:15.747Z,13.77
2022-11-01T16:04:49.782Z,13.70
2022-11-01T16:07:45.044Z,13.63
2022-11-01T16:14:44.566Z,13.48
2022-11-01T16:26:33.845Z,13.19
2022-11-01T16:34:18.351Z,13.08
2022-11-01T16:36:50.370Z,13.02
2022-11-01T16:39:58.154Z,13.00
2022-11-01T16:42:37.163Z,12.98
2022-11-01T16:49:29.104Z,12.89
2022-11-01T16:52:01.097Z,12.88
2022-11-01T16:54:33.175Z,12.87
2022-11-01T16:58:16.940Z,12.84
2022-11-01T17:10:19.262Z,12.69
2022-11-01T17:12:51.462Z,12.67
2022-11-01T17:16:06.112Z,12.65
2022-11-01T17:23:15.847Z,12.55
2022-11-01T17:30:58.438Z,12.49
2022-11-01T17:39:06.562Z,12.40
2022-11-01T17:41:45.644Z,12.33
2022-11-01T17:44:19.296Z,12.27
2022-11-01T17:46:51.679Z,12.25
2022-11-01T17:50:07.830Z,12.20
2022-11-01T17:52:47.399Z,12.14
2022-11-01T17:55:19.509Z,12.10
2022-11-01T17:57:58.037Z,12.06
2022-11-01T18:00:30.150Z,12.04
2022-11-01T18:43:47.965Z,11.51
2022-11-01T18:49:30.315Z,11.48
2022-11-01T18:53:09.591Z,11.46
2022-11-01T18:55:41.777Z,11.40
2022-11-01T18:59:40.701Z,11.35
2022-11-01T19:02:22.757Z,11.29
2022-11-01T19:05:36.665Z,11.27
2022-11-01T19:13:37.591Z,11.20
2022-11-01T19:24:51.178Z,11.10
2022-11-01T19:27:30.507Z,11.10
2022-11-01T19:35:02.519Z,11.10
2022-11-01T19:37:37.439Z,11.13
2022-11-01T19:41:01.789Z,11.14
2022-11-01T19:43:35.308Z,11.13
2022-11-01T19:51:11.037Z,11.10
2022-11-01T19:54:02.477Z,11.10
2022-11-01T19:56:34.691Z,11.10
2022-11-01T20:00:10.047Z,11.10
2022-11-01T20:02:43.980Z,11.11
2022-11-01T20:19:17.394Z,11.09
2022-11-01T20:22:17.280Z,11.13
2022-11-01T20:25:38.269Z,11.14
2022-11-01T20:37:40.346Z,11.21
2022-11-01T20:41:04.155Z,11.25
2022-11-01T20:43:42.276Z,11.29
2022-11-01T20:46:43.754Z,11.33
2022-11-01T20:49:15.855Z,11.37
2022-11-01T20:51:47.904Z,11.41
2022-11-01T20:54:23.881Z,11.45
2022-11-01T20:56:55.921Z,11.47
2022-11-01T20:59:34.302Z,11.51
2022-11-01T21:02:47.045Z,11.53
2022-11-01T21:05:27.532Z,11.54
2022-11-01T21:08:26.330Z,11.57
2022-11-01T21:12:01.587Z,11.58
2022-11-01T21:14:40.310Z,11.57
2022-11-01T21:21:46.988Z,11.57
2022-11-01T21:26:11.334Z,11.58
2022-11-01T21:29:31.213Z,11.60
2022-11-01T21:32:03.519Z,11.63
2022-11-01T21:34:36.222Z,11.66
2022-11-01T21:37:15.124Z,11.69
2022-11-01T21:39:47.490Z,11.71
2022-11-01T21:42:41.584Z,11.75
2022-11-01T21:49:41.685Z,11.83
2022-11-01T21:53:22.223Z,11.86
2022-11-01T22:00:30.509Z,11.86
2022-11-01T22:03:03.498Z,11.88
2022-11-01T22:05:42.307Z,11.89
2022-11-01T22:08:14.300Z,11.91
2022-11-01T22:10:52.383Z,11.93
2022-11-01T22:13:24.389Z,11.96
2022-11-01T22:16:03.345Z,11.99
2022-11-01T22:18:35.400Z,12.03
2022-11-01T22:21:26.391Z,12.06
2022-11-01T22:28:28.875Z,12.11
2022-11-01T22:31:00.983Z,12.14
2022-11-01T22:38:38.997Z,12.19
2022-11-01T22:45:25.395Z,12.20
2022-11-01T22:48:03.809Z,12.20
2022-11-01T22:55:28.381Z,12.17
2022-11-01T22:58:52.196Z,12.16
2022-11-01T23:01:34.373Z,12.15
2022-11-01T23:09:26.535Z,12.13
2022-11-01T23:12:17.652Z,12.12
2022-11-01T23:15:55.730Z,12.11
2022-11-01T23:18:37.580Z,12.08
2022-11-01T23:22:02.319Z,12.02
2022-11-01T23:24:40.655Z,12.01
2022-11-01T23:32:06.153Z,11.94
2022-11-01T23:34:44.561Z,11.91
2022-11-01T23:41:38.975Z,11.80
2022-11-01T23:49:19.058Z,11.75
2022-11-01T23:51:51.309Z,11.75
2022-11-01T23:54:35.068Z,11.73
2022-11-01T23:57:13.295Z,11.72
2022-11-01T23:59:45.145Z,11.69
